SLA weather

Martin Miguel De Guemes International Airport
Salta, Salta Province, Argentina

Public forecast

Using degrees Celsius for public forecast. Weather courtesy of forecast.io.

METAR (pilot weather report)

Retrieved 2019/08/20 14:00 UTC (59 minutes ago):

SASA 201400Z 36005KT CAVOK 14/01 Q1026

TAF (pilot weather forecast)

Retrieved 2019/08/20 12:00 UTC (3 hours ago):

TAF SASA 201100Z 2012/2112 23005KT CAVOK TX19/2018Z TN03/2110Z BECMG 2016/2019 02010KT 9999 SCT030 BECMG 2100/2103 23005KT